Portada
METAR-TAF:

METAR-TAF

Aeroports :

Sault Ste. Marie Municipal Airport (Sanderson Field)

Sault Ste. Marie, Michigan, Estats Units d'Amèrica

latitud: 46-28-46N, longitud: 084-21-26W, altitud: 210 m

Observació

L'informe es va fer fa 11 minuts, a les 01:55 UTC
Vent 3 kt del Sud
Temperatura 26°C
Humitat 58%
Pressió 1013 hPa
Visibilitat: 16.1 km
Cel cobert a una alçada de 9500 ft

METAR: KANJ 280155Z AUTO 19003KT 10SM OVC095 26/17 A2991 RMK AO2 SLP122 T02560172

Hora: 22:06 (02:06 UTC)


TAF: manca

Observacions i pronòstics meteorològics de més de 4000 aeroports (METAR i TAF).

Les estacions disponibles són els punts grocs i vermells al mapa.

Posi el ratolí al punt desitjat per veure el nom de l'estació.

Feu clic per veure les observacions i els pronòstics meteorològics.

Per canviar el mapa: feu clic els botons verds amb una creu de color negre per apropar; al botó verd amb un guió per allunyar la imatge; o en les fletxes verdes per a mapes adjacents.


METAR-TAF: